sensor_id;sensor_type;location;lat;lon;timestamp;pressure;altitude;pressure_sealevel;temperature;humidity
27294;BME280;14785;52.556;13.430;2023-04-15T00:02:21;99774.50;;;11.79;100.00
27294;BME280;14785;52.556;13.430;2023-04-15T00:04:47;99774.94;;;11.53;100.00
27294;BME280;14785;52.556;13.430;2023-04-15T00:07:13;99770.00;;;11.80;100.00
27294;BME280;14785;52.556;13.430;2023-04-15T00:09:40;99765.22;;;11.90;100.00
27294;BME280;14785;52.556;13.430;2023-04-15T00:12:06;99764.28;;;11.83;100.00
27294;BME280;14785;52.556;13.430;2023-04-15T00:14:33;99764.28;;;11.83;100.00
27294;BME280;14785;52.556;13.430;2023-04-15T00:16:59;99758.59;;;11.86;100.00
27294;BME280;14785;52.556;13.430;2023-04-15T00:19:25;99761.16;;;11.94;100.00
27294;BME280;14785;52.556;13.430;2023-04-15T00:21:51;99767.06;;;11.75;100.00
27294;BME280;14785;52.556;13.430;2023-04-15T00:24:16;99767.31;;;11.80;100.00
27294;BME280;14785;52.556;13.430;2023-04-15T00:26:41;99765.72;;;11.64;100.00
27294;BME280;14785;52.556;13.430;2023-04-15T00:29:07;99763.38;;;11.76;100.00
27294;BME280;14785;52.556;13.430;2023-04-15T00:31:32;99761.53;;;11.61;100.00
27294;BME280;14785;52.556;13.430;2023-04-15T00:33:58;99762.63;;;11.52;100.00
27294;BME280;14785;52.556;13.430;2023-04-15T00:36:24;99768.06;;;11.59;100.00
27294;BME280;14785;52.556;13.430;2023-04-15T00:38:50;99771.09;;;11.41;100.00
27294;BME280;14785;52.556;13.430;2023-04-15T00:41:16;99775.47;;;11.34;100.00
27294;BME280;14785;52.556;13.430;2023-04-15T00:43:43;99777.16;;;11.35;100.00
27294;BME280;14785;52.556;13.430;2023-04-15T00:46:12;99761.81;;;11.52;100.00
27294;BME280;14785;52.556;13.430;2023-04-15T00:48:39;99765.03;;;11.47;100.00
27294;BME280;14785;52.556;13.430;2023-04-15T00:51:05;99761.81;;;11.52;100.00
27294;BME280;14785;52.556;13.430;2023-04-15T00:53:32;99760.88;;;11.45;100.00
27294;BME280;14785;52.556;13.430;2023-04-15T00:55:57;99757.69;;;11.79;100.00
27294;BME280;14785;52.556;13.430;2023-04-15T00:58:23;99754.50;;;11.69;100.00
27294;BME280;14785;52.556;13.430;2023-04-15T01:00:49;99751.34;;;11.50;100.00
27294;BME280;14785;52.556;13.430;2023-04-15T01:03:18;99757.53;;;11.66;100.00
27294;BME280;14785;52.556;13.430;2023-04-15T01:05:44;99750.72;;;11.78;100.00
27294;BME280;14785;52.556;13.430;2023-04-15T01:08:10;99739.47;;;11.97;100.00
27294;BME280;14785;52.556;13.430;2023-04-15T01:10:35;99753.63;;;11.83;100.00
27294;BME280;14785;52.556;13.430;2023-04-15T01:13:02;99749.97;;;11.84;100.00
27294;BME280;14785;52.556;13.430;2023-04-15T01:15:27;99746.81;;;11.95;100.00
27294;BME280;14785;52.556;13.430;2023-04-15T01:17:52;99741.44;;;11.74;100.00
27294;BME280;14785;52.556;13.430;2023-04-15T01:20:18;99745.19;;;11.65;100.00
27294;BME280;14785;52.556;13.430;2023-04-15T01:22:44;99743.56;;;11.64;100.00
27294;BME280;14785;52.556;13.430;2023-04-15T01:25:13;99736.66;;;11.69;100.00
27294;BME280;14785;52.556;13.430;2023-04-15T01:27:42;99739.50;;;11.68;100.00
27294;BME280;14785;52.556;13.430;2023-04-15T01:30:08;99744.38;;;11.79;100.00
27294;BME280;14785;52.556;13.430;2023-04-15T01:32:35;99742.59;;;11.86;100.00
27294;BME280;14785;52.556;13.430;2023-04-15T01:35:00;99738.28;;;11.85;100.00
27294;BME280;14785;52.556;13.430;2023-04-15T01:37:26;99740.06;;;11.78;100.00
27294;BME280;14785;52.556;13.430;2023-04-15T01:39:51;99736.28;;;11.87;100.00
27294;BME280;14785;52.556;13.430;2023-04-15T01:42:17;99729.94;;;11.88;100.00
27294;BME280;14785;52.556;13.430;2023-04-15T01:44:42;99732.63;;;11.73;100.00
27294;BME280;14785;52.556;13.430;2023-04-15T01:47:07;99735.25;;;11.58;100.00
27294;BME280;14785;52.556;13.430;2023-04-15T01:49:33;99731.97;;;11.56;100.00
27294;BME280;14785;52.556;13.430;2023-04-15T01:51:59;99736.09;;;11.74;100.00
27294;BME280;14785;52.556;13.430;2023-04-15T01:54:25;99733.44;;;11.59;100.00
27294;BME280;14785;52.556;13.430;2023-04-15T01:56:51;99733.06;;;11.47;100.00
27294;BME280;14785;52.556;13.430;2023-04-15T01:59:17;99735.38;;;11.65;100.00
27294;BME280;14785;52.556;13.430;2023-04-15T02:01:43;99729.88;;;11.67;100.00
27294;BME280;14785;52.556;13.430;2023-04-15T02:04:09;99730.16;;;11.72;100.00
27294;BME280;14785;52.556;13.430;2023-04-15T02:06:43;99727.13;;;11.75;100.00
27294;BME280;14785;52.556;13.430;2023-04-15T02:09:10;99726.13;;;11.97;100.00
27294;BME280;14785;52.556;13.430;2023-04-15T02:11:35;99722.41;;;11.91;100.00
27294;BME280;14785;52.556;13.430;2023-04-15T02:14:04;99720.81;;;11.97;100.00
27294;BME280;14785;52.556;13.430;2023-04-15T02:16:31;99721.88;;;12.02;100.00
27294;BME280;14785;52.556;13.430;2023-04-15T02:18:57;99727.06;;;11.89;100.00
27294;BME280;14785;52.556;13.430;2023-04-15T02:21:25;99731.59;;;11.59;100.00
27294;BME280;14785;52.556;13.430;2023-04-15T02:23:50;99731.41;;;11.61;100.00
27294;BME280;14785;52.556;13.430;2023-04-15T02:26:17;99728.09;;;11.74;100.00
27294;BME280;14785;52.556;13.430;2023-04-15T02:28:43;99722.41;;;11.77;100.00
27294;BME280;14785;52.556;13.430;2023-04-15T02:31:09;99718.53;;;11.94;100.00
27294;BME280;14785;52.556;13.430;2023-04-15T02:33:34;99729.78;;;11.75;100.00
27294;BME280;14785;52.556;13.430;2023-04-15T02:36:01;99730.03;;;11.80;100.00
27294;BME280;14785;52.556;13.430;2023-04-15T02:38:26;99722.91;;;11.66;100.00
27294;BME280;14785;52.556;13.430;2023-04-15T02:40:51;99722.41;;;11.77;100.00
27294;BME280;14785;52.556;13.430;2023-04-15T02:43:17;99727.50;;;11.72;100.00
27294;BME280;14785;52.556;13.430;2023-04-15T02:45:43;99721.41;;;11.78;100.00
27294;BME280;14785;52.556;13.430;2023-04-15T02:48:09;99730.38;;;11.91;100.00
27294;BME280;14785;52.556;13.430;2023-04-15T02:50:35;99730.75;;;11.88;100.00
27294;BME280;14785;52.556;13.430;2023-04-15T02:53:01;99737.44;;;11.99;100.00
27294;BME280;14785;52.556;13.430;2023-04-15T02:55:28;99733.34;;;11.82;100.00
27294;BME280;14785;52.556;13.430;2023-04-15T02:57:53;99734.88;;;11.91;100.00
27294;BME280;14785;52.556;13.430;2023-04-15T03:00:18;99733.06;;;11.77;100.00
27294;BME280;14785;52.556;13.430;2023-04-15T03:02:45;99740.22;;;11.91;100.00
27294;BME280;14785;52.556;13.430;2023-04-15T03:05:12;99737.63;;;11.97;100.00
27294;BME280;14785;52.556;13.430;2023-04-15T03:07:38;99740.69;;;11.80;100.00
27294;BME280;14785;52.556;13.430;2023-04-15T03:10:05;99739.19;;;11.92;100.00
27294;BME280;14785;52.556;13.430;2023-04-15T03:12:30;99738.09;;;11.86;100.00
27294;BME280;14785;52.556;13.430;2023-04-15T03:14:56;99738.19;;;11.93;100.00
27294;BME280;14785;52.556;13.430;2023-04-15T03:17:21;99739.38;;;11.90;100.00
27294;BME280;14785;52.556;13.430;2023-04-15T03:19:47;99739.38;;;11.90;100.00
27294;BME280;14785;52.556;13.430;2023-04-15T03:22:12;99738.25;;;11.99;100.00
27294;BME280;14785;52.556;13.430;2023-04-15T03:24:37;99739.19;;;11.92;100.00
27294;BME280;14785;52.556;13.430;2023-04-15T03:27:03;99741.47;;;11.95;100.00
27294;BME280;14785;52.556;13.430;2023-04-15T03:29:30;99747.00;;;11.93;100.00
27294;BME280;14785;52.556;13.430;2023-04-15T03:31:55;99736.97;;;12.31;100.00
27294;BME280;14785;52.556;13.430;2023-04-15T03:34:21;99737.72;;;12.25;100.00
27294;BME280;14785;52.556;13.430;2023-04-15T03:36:47;99733.69;;;12.29;100.00
27294;BME280;14785;52.556;13.430;2023-04-15T03:39:12;99733.31;;;12.32;100.00
27294;BME280;14785;52.556;13.430;2023-04-15T03:41:38;99738.84;;;12.16;100.00
27294;BME280;14785;52.556;13.430;2023-04-15T03:44:03;99742.16;;;12.18;100.00
27294;BME280;14785;52.556;13.430;2023-04-15T03:46:29;99741.69;;;12.29;100.00
27294;BME280;14785;52.556;13.430;2023-04-15T03:48:54;99734.19;;;12.39;100.00
27294;BME280;14785;52.556;13.430;2023-04-15T03:51:20;99729.81;;;12.31;100.00
27294;BME280;14785;52.556;13.430;2023-04-15T03:53:45;99733.63;;;12.43;100.00
27294;BME280;14785;52.556;13.430;2023-04-15T03:56:11;99732.75;;;12.22;100.00
27294;BME280;14785;52.556;13.430;2023-04-15T03:58:36;99740.25;;;12.12;100.00
27294;BME280;14785;52.556;13.430;2023-04-15T04:01:01;99737.66;;;12.18;100.00
27294;BME280;14785;52.556;13.430;2023-04-15T04:03:27;99735.56;;;12.35;100.00
27294;BME280;14785;52.556;13.430;2023-04-15T04:05:52;99735.44;;;12.43;100.00
27294;BME280;14785;52.556;13.430;2023-04-15T04:08:17;99739.63;;;12.52;100.00
27294;BME280;14785;52.556;13.430;2023-04-15T04:10:44;99750.31;;;12.52;100.00
27294;BME280;14785;52.556;13.430;2023-04-15T04:13:09;99751.44;;;12.43;100.00
27294;BME280;14785;52.556;13.430;2023-04-15T04:15:35;99742.66;;;12.28;100.00
27294;BME280;14785;52.556;13.430;2023-04-15T04:18:00;99749.41;;;12.45;100.00
27294;BME280;14785;52.556;13.430;2023-04-15T04:20:26;99743.56;;;12.35;100.00
27294;BME280;14785;52.556;13.430;2023-04-15T04:22:51;99745.91;;;12.23;100.00
27294;BME280;14785;52.556;13.430;2023-04-15T04:25:17;99745.72;;;12.25;100.00
27294;BME280;14785;52.556;13.430;2023-04-15T04:27:42;99749.03;;;12.27;100.00
27294;BME280;14785;52.556;13.430;2023-04-15T04:30:10;99747.63;;;12.31;100.00
27294;BME280;14785;52.556;13.430;2023-04-15T04:32:35;99752.16;;;12.30;100.00
27294;BME280;14785;52.556;13.430;2023-04-15T04:35:01;99749.69;;;12.29;100.00
27294;BME280;14785;52.556;13.430;2023-04-15T04:37:27;99753.22;;;12.36;100.00
27294;BME280;14785;52.556;13.430;2023-04-15T04:39:52;99755.72;;;12.37;100.00
27294;BME280;14785;52.556;13.430;2023-04-15T04:42:18;99755.38;;;12.26;100.00
27294;BME280;14785;52.556;13.430;2023-04-15T04:44:43;99758.25;;;12.24;100.00
27294;BME280;14785;52.556;13.430;2023-04-15T04:47:09;99759.63;;;12.20;100.00
27294;BME280;14785;52.556;13.430;2023-04-15T04:49:34;99750.88;;;12.47;100.00
27294;BME280;14785;52.556;13.430;2023-04-15T04:52:00;99757.66;;;12.50;100.00
27294;BME280;14785;52.556;13.430;2023-04-15T04:54:25;99766.56;;;12.36;100.00
27294;BME280;14785;52.556;13.430;2023-04-15T04:56:51;99764.13;;;12.41;100.00
27294;BME280;14785;52.556;13.430;2023-04-15T04:59:17;99759.97;;;12.32;100.00
27294;BME280;14785;52.556;13.430;2023-04-15T05:01:42;99768.31;;;12.50;100.00
27294;BME280;14785;52.556;13.430;2023-04-15T05:04:08;99771.25;;;12.55;100.00
27294;BME280;14785;52.556;13.430;2023-04-15T05:06:33;99770.50;;;12.61;100.00
27294;BME280;14785;52.556;13.430;2023-04-15T05:09:01;99767.81;;;12.40;100.00
27294;BME280;14785;52.556;13.430;2023-04-15T05:11:27;99777.34;;;12.49;100.00
27294;BME280;14785;52.556;13.430;2023-04-15T05:13:52;99777.44;;;12.55;100.00
27294;BME280;14785;52.556;13.430;2023-04-15T05:16:18;99777.47;;;12.62;100.00
27294;BME280;14785;52.556;13.430;2023-04-15T05:18:44;99777.66;;;12.81;100.00
27294;BME280;14785;52.556;13.430;2023-04-15T05:21:09;99775.94;;;12.74;100.00
27294;BME280;14785;52.556;13.430;2023-04-15T05:23:35;99770.56;;;12.88;100.00
27294;BME280;14785;52.556;13.430;2023-04-15T05:26:00;99787.16;;;12.84;100.00
27294;BME280;14785;52.556;13.430;2023-04-15T05:28:26;99788.41;;;12.88;100.00
27294;BME280;14785;52.556;13.430;2023-04-15T05:30:51;99786.63;;;12.74;100.00
27294;BME280;14785;52.556;13.430;2023-04-15T05:33:16;99786.25;;;12.77;100.00
27294;BME280;14785;52.556;13.430;2023-04-15T05:35:42;99785.25;;;12.78;100.00
27294;BME280;14785;52.556;13.430;2023-04-15T05:38:07;99787.19;;;12.90;100.00
27294;BME280;14785;52.556;13.430;2023-04-15T05:40:33;99789.94;;;12.76;100.00
27294;BME280;14785;52.556;13.430;2023-04-15T05:42:58;99798.19;;;12.81;100.00
27294;BME280;14785;52.556;13.430;2023-04-15T05:45:24;99791.84;;;12.82;100.00
27294;BME280;14785;52.556;13.430;2023-04-15T05:47:49;99798.69;;;12.70;100.00
27294;BME280;14785;52.556;13.430;2023-04-15T05:50:18;99796.28;;;12.96;100.00
27294;BME280;14785;52.556;13.430;2023-04-15T05:52:43;99796.41;;;13.09;100.00
27294;BME280;14785;52.556;13.430;2023-04-15T05:55:10;99789.09;;;13.17;100.00
27294;BME280;14785;52.556;13.430;2023-04-15T05:57:36;99779.72;;;13.28;100.00
27294;BME280;14785;52.556;13.430;2023-04-15T06:00:02;99786.59;;;13.16;100.00
27294;BME280;14785;52.556;13.430;2023-04-15T06:02:29;99781.66;;;13.13;100.00
27294;BME280;14785;52.556;13.430;2023-04-15T06:04:56;99783.13;;;13.15;100.00
27294;BME280;14785;52.556;13.430;2023-04-15T06:07:22;99782.56;;;13.20;100.00
27294;BME280;14785;52.556;13.430;2023-04-15T06:09:47;99789.19;;;13.30;100.00
27294;BME280;14785;52.556;13.430;2023-04-15T06:12:13;99797.50;;;13.42;100.00
27294;BME280;14785;52.556;13.430;2023-04-15T06:14:39;99794.19;;;13.40;100.00
27294;BME280;14785;52.556;13.430;2023-04-15T06:17:05;99791.44;;;13.61;100.00
27294;BME280;14785;52.556;13.430;2023-04-15T06:19:31;99789.09;;;13.45;100.00
27294;BME280;14785;52.556;13.430;2023-04-15T06:21:57;99788.38;;;13.30;100.00
27294;BME280;14785;52.556;13.430;2023-04-15T06:24:22;99789.41;;;13.29;100.00
27294;BME280;14785;52.556;13.430;2023-04-15T06:26:48;99792.16;;;13.42;100.00
27294;BME280;14785;52.556;13.430;2023-04-15T06:29:13;99799.22;;;13.56;100.00
27294;BME280;14785;52.556;13.430;2023-04-15T06:31:38;99793.31;;;13.33;100.00
27294;BME280;14785;52.556;13.430;2023-04-15T06:34:04;99790.00;;;13.31;100.00
27294;BME280;14785;52.556;13.430;2023-04-15T06:36:30;99786.94;;;13.68;100.00
27294;BME280;14785;52.556;13.430;2023-04-15T06:38:56;99793.63;;;13.85;100.00
27294;BME280;14785;52.556;13.430;2023-04-15T06:41:22;99802.56;;;13.65;100.00
27294;BME280;14785;52.556;13.430;2023-04-15T06:43:47;99804.66;;;13.69;100.00
27294;BME280;14785;52.556;13.430;2023-04-15T06:46:13;99805.84;;;13.67;100.00
27294;BME280;14785;52.556;13.430;2023-04-15T06:48:38;99806.69;;;13.67;100.00
27294;BME280;14785;52.556;13.430;2023-04-15T06:51:04;99799.38;;;13.82;100.00
27294;BME280;14785;52.556;13.430;2023-04-15T06:53:30;99803.34;;;13.59;100.00
27294;BME280;14785;52.556;13.430;2023-04-15T06:55:55;99809.72;;;13.30;100.00
27294;BME280;14785;52.556;13.430;2023-04-15T06:58:21;99817.06;;;13.21;100.00
27294;BME280;14785;52.556;13.430;2023-04-15T07:00:47;99819.03;;;13.13;100.00
27294;BME280;14785;52.556;13.430;2023-04-15T07:03:12;99819.56;;;13.29;100.00
27294;BME280;14785;52.556;13.430;2023-04-15T07:05:39;99830.44;;;13.00;100.00
27294;BME280;14785;52.556;13.430;2023-04-15T07:08:05;99830.25;;;13.29;100.00
27294;BME280;14785;52.556;13.430;2023-04-15T07:10:32;99835.94;;;13.20;100.00
27294;BME280;14785;52.556;13.430;2023-04-15T07:12:58;99831.47;;;13.27;100.00
27294;BME280;14785;52.556;13.430;2023-04-15T07:15:23;99836.19;;;12.83;100.00
27294;BME280;14785;52.556;13.430;2023-04-15T07:17:49;99838.75;;;13.12;100.00
27294;BME280;14785;52.556;13.430;2023-04-15T07:20:14;99841.38;;;13.33;100.00
27294;BME280;14785;52.556;13.430;2023-04-15T07:22:40;99848.81;;;12.74;100.00
27294;BME280;14785;52.556;13.430;2023-04-15T07:25:06;99860.88;;;13.06;100.00
27294;BME280;14785;52.556;13.430;2023-04-15T07:27:31;99858.78;;;13.01;100.00
27294;BME280;14785;52.556;13.430;2023-04-15T07:29:57;99853.50;;;13.08;100.00
27294;BME280;14785;52.556;13.430;2023-04-15T07:32:22;99858.19;;;13.27;100.00
27294;BME280;14785;52.556;13.430;2023-04-15T07:34:49;99860.81;;;13.48;100.00
27294;BME280;14785;52.556;13.430;2023-04-15T07:37:14;99858.25;;;13.33;100.00
27294;BME280;14785;52.556;13.430;2023-04-15T07:39:40;99855.88;;;13.45;100.00
27294;BME280;14785;52.556;13.430;2023-04-15T07:42:06;99869.56;;;13.63;100.00
27294;BME280;14785;52.556;13.430;2023-04-15T07:44:31;99865.56;;;13.25;100.00
27294;BME280;14785;52.556;13.430;2023-04-15T07:46:58;99865.66;;;13.38;100.00
27294;BME280;14785;52.556;13.430;2023-04-15T07:49:23;99863.47;;;13.20;100.00
27294;BME280;14785;52.556;13.430;2023-04-15T07:51:49;99868.31;;;13.10;100.00
27294;BME280;14785;52.556;13.430;2023-04-15T07:54:16;99871.53;;;13.27;100.00
27294;BME280;14785;52.556;13.430;2023-04-15T07:56:41;99865.53;;;13.18;100.00
27294;BME280;14785;52.556;13.430;2023-04-15T07:59:07;99872.78;;;13.03;100.00
27294;BME280;14785;52.556;13.430;2023-04-15T08:01:35;99873.81;;;13.30;100.00
27294;BME280;14785;52.556;13.430;2023-04-15T08:04:00;99876.75;;;12.93;100.00
27294;BME280;14785;52.556;13.430;2023-04-15T08:06:26;99873.72;;;13.17;100.00
27294;BME280;14785;52.556;13.430;2023-04-15T08:08:52;99870.72;;;13.05;100.00
27294;BME280;14785;52.556;13.430;2023-04-15T08:11:19;99870.19;;;13.37;100.00
27294;BME280;14785;52.556;13.430;2023-04-15T08:13:45;99873.00;;;13.29;100.00
27294;BME280;14785;52.556;13.430;2023-04-15T08:16:22;99872.38;;;13.55;100.00
27294;BME280;14785;52.556;13.430;2023-04-15T08:18:50;99881.94;;;12.80;100.00
27294;BME280;14785;52.556;13.430;2023-04-15T08:21:17;99886.16;;;13.31;100.00
27294;BME280;14785;52.556;13.430;2023-04-15T08:23:44;99881.94;;;13.15;100.00
27294;BME280;14785;52.556;13.430;2023-04-15T08:26:11;99886.25;;;13.44;100.00
27294;BME280;14785;52.556;13.430;2023-04-15T08:28:39;99890.81;;;13.50;100.00
27294;BME280;14785;52.556;13.430;2023-04-15T08:31:05;99892.91;;;13.55;100.00
27294;BME280;14785;52.556;13.430;2023-04-15T08:33:30;99887.72;;;13.47;100.00
27294;BME280;14785;52.556;13.430;2023-04-15T08:35:56;99887.28;;;13.71;100.00
27294;BME280;14785;52.556;13.430;2023-04-15T08:38:22;99887.97;;;13.52;100.00
27294;BME280;14785;52.556;13.430;2023-04-15T08:40:48;99885.28;;;13.79;100.00
27294;BME280;14785;52.556;13.430;2023-04-15T08:43:39;99896.06;;;13.92;100.00
27294;BME280;14785;52.556;13.430;2023-04-15T08:46:09;99898.25;;;14.16;100.00
27294;BME280;14785;52.556;13.430;2023-04-15T08:48:37;99904.00;;;14.13;100.00
27294;BME280;14785;52.556;13.430;2023-04-15T08:51:05;99903.00;;;14.21;100.00
27294;BME280;14785;52.556;13.430;2023-04-15T08:53:31;99912.28;;;14.18;100.00
27294;BME280;14785;52.556;13.430;2023-04-15T08:55:59;99904.81;;;13.52;100.00
27294;BME280;14785;52.556;13.430;2023-04-15T08:58:30;99895.13;;;13.72;100.00
27294;BME280;14785;52.556;13.430;2023-04-15T09:00:56;99895.91;;;13.66;100.00
27294;BME280;14785;52.556;13.430;2023-04-15T09:03:21;99902.25;;;13.93;100.00
27294;BME280;14785;52.556;13.430;2023-04-15T09:05:49;99898.78;;;13.71;100.00
27294;BME280;14785;52.556;13.430;2023-04-15T09:08:14;99903.09;;;14.00;100.00
27294;BME280;14785;52.556;13.430;2023-04-15T09:10:40;99905.97;;;13.98;100.00
27294;BME280;14785;52.556;13.430;2023-04-15T09:13:05;99902.28;;;13.99;100.00
27294;BME280;14785;52.556;13.430;2023-04-15T09:15:31;99907.00;;;14.25;100.00
27294;BME280;14785;52.556;13.430;2023-04-15T09:17:57;99909.78;;;14.17;100.00
27294;BME280;14785;52.556;13.430;2023-04-15T09:20:22;99910.47;;;13.91;100.00
27294;BME280;14785;52.556;13.430;2023-04-15T09:22:49;99919.44;;;14.11;100.00
27294;BME280;14785;52.556;13.430;2023-04-15T09:27:48;99916.53;;;14.40;100.00
27294;BME280;14785;52.556;13.430;2023-04-15T09:30:14;99914.94;;;13.84;100.00
27294;BME280;14785;52.556;13.430;2023-04-15T09:32:56;99916.72;;;13.77;100.00
27294;BME280;14785;52.556;13.430;2023-04-15T09:35:25;99916.72;;;13.77;100.00
27294;BME280;14785;52.556;13.430;2023-04-15T09:37:51;99929.75;;;13.87;100.00
27294;BME280;14785;52.556;13.430;2023-04-15T09:43:05;99929.88;;;14.06;100.00
27294;BME280;14785;52.556;13.430;2023-04-15T09:45:31;99930.75;;;14.13;100.00
27294;BME280;14785;52.556;13.430;2023-04-15T09:47:58;99932.97;;;14.31;100.00
27294;BME280;14785;52.556;13.430;2023-04-15T09:50:28;99927.28;;;13.85;100.00
27294;BME280;14785;52.556;13.430;2023-04-15T09:52:54;99943.00;;;14.01;100.00
27294;BME280;14785;52.556;13.430;2023-04-15T09:55:20;99940.75;;;13.71;100.00
27294;BME280;14785;52.556;13.430;2023-04-15T09:57:46;99948.97;;;13.69;100.00
27294;BME280;14785;52.556;13.430;2023-04-15T10:00:12;99945.78;;;13.87;100.00
27294;BME280;14785;52.556;13.430;2023-04-15T10:02:39;99942.41;;;13.99;100.00
27294;BME280;14785;52.556;13.430;2023-04-15T10:05:05;99943.41;;;13.98;100.00
27294;BME280;14785;52.556;13.430;2023-04-15T10:07:31;99953.78;;;13.59;100.00
27294;BME280;14785;52.556;13.430;2023-04-15T10:09:59;99956.03;;;13.83;100.00
27294;BME280;14785;52.556;13.430;2023-04-15T10:12:27;99955.66;;;13.86;100.00
27294;BME280;14785;52.556;13.430;2023-04-15T10:14:58;99951.75;;;14.16;100.00
27294;BME280;14785;52.556;13.430;2023-04-15T10:17:26;99954.75;;;14.28;100.00
27294;BME280;14785;52.556;13.430;2023-04-15T10:19:59;99964.41;;;14.01;100.00
27294;BME280;14785;52.556;13.430;2023-04-15T10:22:27;99965.19;;;13.68;100.00
27294;BME280;14785;52.556;13.430;2023-04-15T10:24:52;99966.34;;;13.86;100.00
27294;BME280;14785;52.556;13.430;2023-04-15T10:27:18;99966.72;;;13.83;100.00
27294;BME280;14785;52.556;13.430;2023-04-15T10:29:44;99970.53;;;13.47;100.00
27294;BME280;14785;52.556;13.430;2023-04-15T10:32:10;99970.81;;;13.79;100.00
27294;BME280;14785;52.556;13.430;2023-04-15T10:34:36;99964.59;;;13.72;100.00
27294;BME280;14785;52.556;13.430;2023-04-15T10:37:03;99972.69;;;14.06;100.00
27294;BME280;14785;52.556;13.430;2023-04-15T10:39:44;99968.25;;;13.92;100.00
27294;BME280;14785;52.556;13.430;2023-04-15T10:42:11;99967.09;;;13.74;100.00
27294;BME280;14785;52.556;13.430;2023-04-15T10:44:38;99970.81;;;13.79;100.00
27294;BME280;14785;52.556;13.430;2023-04-15T10:47:13;99978.81;;;14.00;100.00
27294;BME280;14785;52.556;13.430;2023-04-15T10:50:05;99969.31;;;14.59;100.00
27294;BME280;14785;52.556;13.430;2023-04-15T10:52:29;99974.19;;;14.49;100.00
27294;BME280;14785;52.556;13.430;2023-04-15T10:55:13;99983.28;;;13.93;100.00
27294;BME280;14785;52.556;13.430;2023-04-15T10:57:41;99984.63;;;14.10;100.00
27294;BME280;14785;52.556;13.430;2023-04-15T11:03:04;99984.50;;;14.52;100.00
27294;BME280;14785;52.556;13.430;2023-04-15T11:08:14;99990.59;;;14.33;100.00
27294;BME280;14785;52.556;13.430;2023-04-15T11:15:40;99991.81;;;14.37;100.00
27294;BME280;14785;52.556;13.430;2023-04-15T11:18:16;99995.00;;;13.71;100.00
27294;BME280;14785;52.556;13.430;2023-04-15T11:20:47;99996.59;;;14.14;100.00
27294;BME280;14785;52.556;13.430;2023-04-15T11:23:16;99997.97;;;14.31;100.00
27294;BME280;14785;52.556;13.430;2023-04-15T11:25:42;100003.09;;;14.26;100.00
27294;BME280;14785;52.556;13.430;2023-04-15T11:28:07;100006.72;;;14.46;100.00
27294;BME280;14785;52.556;13.430;2023-04-15T11:30:34;100005.47;;;14.42;100.00
27294;BME280;14785;52.556;13.430;2023-04-15T11:33:05;100015.94;;;14.16;100.00
27294;BME280;14785;52.556;13.430;2023-04-15T11:35:31;100010.38;;;14.11;100.00
27294;BME280;14785;52.556;13.430;2023-04-15T11:37:57;100021.09;;;13.90;100.00
27294;BME280;14785;52.556;13.430;2023-04-15T11:40:24;100024.84;;;13.96;100.00
27294;BME280;14785;52.556;13.430;2023-04-15T11:45:47;100034.19;;;13.85;100.00
27294;BME280;14785;52.556;13.430;2023-04-15T11:48:13;100023.22;;;14.56;100.00
27294;BME280;14785;52.556;13.430;2023-04-15T11:50:39;100031.50;;;14.61;100.00
27294;BME280;14785;52.556;13.430;2023-04-15T11:53:06;100037.09;;;14.32;100.00
27294;BME280;14785;52.556;13.430;2023-04-15T11:55:46;100035.72;;;13.94;100.00
27294;BME280;14785;52.556;13.430;2023-04-15T11:58:13;100041.34;;;13.99;100.00
27294;BME280;14785;52.556;13.430;2023-04-15T12:00:40;100044.38;;;13.96;100.00
27294;BME280;14785;52.556;13.430;2023-04-15T12:03:13;100041.56;;;14.25;100.00
27294;BME280;14785;52.556;13.430;2023-04-15T12:11:16;100044.59;;;14.50;100.00
27294;BME280;14785;52.556;13.430;2023-04-15T12:13:46;100052.91;;;14.61;100.00
27294;BME280;14785;52.556;13.430;2023-04-15T12:16:15;100051.56;;;14.44;100.00
27294;BME280;14785;52.556;13.430;2023-04-15T12:18:40;100050.78;;;14.50;100.00
27294;BME280;14785;52.556;13.430;2023-04-15T12:21:09;100056.50;;;14.47;100.00
27294;BME280;14785;52.556;13.430;2023-04-15T12:23:47;100055.84;;;14.73;100.00
27294;BME280;14785;52.556;13.430;2023-04-15T12:26:13;100057.72;;;14.79;100.00
27294;BME280;14785;52.556;13.430;2023-04-15T12:28:40;100056.44;;;14.68;100.00
27294;BME280;14785;52.556;13.430;2023-04-15T12:31:10;100057.63;;;14.93;100.00
27294;BME280;14785;52.556;13.430;2023-04-15T12:33:37;100068.84;;;15.16;100.00
27294;BME280;14785;52.556;13.430;2023-04-15T12:36:03;100065.56;;;15.21;100.00
27294;BME280;14785;52.556;13.430;2023-04-15T12:38:29;100067.47;;;14.86;100.00
27294;BME280;14785;52.556;13.430;2023-04-15T12:40:56;100069.81;;;15.02;100.00
27294;BME280;14785;52.556;13.430;2023-04-15T12:43:21;100067.47;;;14.86;100.00
27294;BME280;14785;52.556;13.430;2023-04-15T12:45:47;100073.53;;;14.67;100.00
27294;BME280;14785;52.556;13.430;2023-04-15T12:48:12;100076.66;;;14.77;100.00
27294;BME280;14785;52.556;13.430;2023-04-15T12:50:38;100071.47;;;15.03;100.00
27294;BME280;14785;52.556;13.430;2023-04-15T12:53:03;100081.53;;;15.01;100.00
27294;BME280;14785;52.556;13.430;2023-04-15T12:55:29;100077.06;;;15.08;100.00
27294;BME280;14785;52.556;13.430;2023-04-15T12:57:57;100082.47;;;15.21;100.00
27294;BME280;14785;52.556;13.430;2023-04-15T13:00:23;100088.22;;;15.18;100.00